Time;durP1;ratioP1;P1;durP2;ratioP2;P2;SDS_P1;SDS_P2;PMS_P1;PMS_P2;Temp;Humidity;BMP_temperature;BMP_pressure;BME280_temperature;BME280_humidity;BME280_pressure;Samples;Min_cycle;Max_cycle;Signal;HPM_P1;HPM_P2
2022/11/26 00:00:20;;;;;;;7.78;3.20;;;5.50;81.10;;;;;;4116199;28;20201;-88
2022/11/26 00:02:39;;;;;;;7.88;3.08;;;5.50;81.30;;;;;;4116601;28;20077;-90
2022/11/26 00:04:58;;;;;;;12.45;3.20;;;5.40;81.40;;;;;;4125438;28;20111;-89
2022/11/26 00:07:21;;;;;;;7.97;3.00;;;5.60;81.60;;;;;;4104744;28;20114;-88
2022/11/26 00:09:41;;;;;;;9.57;2.58;;;5.50;81.60;;;;;;4117656;28;20105;-87
2022/11/26 00:12:00;;;;;;;13.07;3.20;;;5.40;81.70;;;;;;4104741;28;20376;-89
2022/11/26 00:14:19;;;;;;;11.32;3.53;;;5.40;81.90;;;;;;4120360;28;20049;-88
2022/11/26 00:16:38;;;;;;;20.48;3.05;;;5.50;82.00;;;;;;4120061;28;20521;-89
2022/11/26 00:18:57;;;;;;;15.60;2.95;;;5.40;82.00;;;;;;4120495;28;20046;-89
2022/11/26 00:21:20;;;;;;;13.75;2.97;;;5.40;82.10;;;;;;4102853;28;20066;-88
2022/11/26 00:23:40;;;;;;;14.00;2.85;;;5.40;82.20;;;;;;4104650;28;20187;-90
2022/11/26 00:26:01;;;;;;;13.75;2.55;;;5.50;82.30;;;;;;4115829;28;20042;-88
2022/11/26 00:28:26;;;;;;;10.80;2.80;;;5.40;82.30;;;;;;4106603;28;20050;-90
2022/11/26 00:30:45;;;;;;;10.23;2.33;;;5.50;82.50;;;;;;4118798;28;20592;-89
2022/11/26 00:33:06;;;;;;;16.38;2.33;;;5.50;82.50;;;;;;4119164;28;20037;-88
2022/11/26 00:35:26;;;;;;;14.63;2.92;;;5.60;82.60;;;;;;4118029;28;20185;-88
2022/11/26 00:37:50;;;;;;;7.90;2.22;;;5.50;82.60;;;;;;4116523;28;20068;-87
2022/11/26 00:40:19;;;;;;;10.52;2.22;;;5.50;82.60;;;;;;4122377;28;20045;-88
2022/11/26 00:42:38;;;;;;;8.10;2.58;;;5.50;82.50;;;;;;4117776;28;20081;-89
2022/11/26 00:44:58;;;;;;;9.07;2.58;;;5.50;82.50;;;;;;4106873;28;20501;-88
2022/11/26 00:47:17;;;;;;;13.80;2.78;;;5.50;82.40;;;;;;4108386;28;20303;-88
2022/11/26 00:49:36;;;;;;;14.25;2.47;;;5.50;82.50;;;;;;4117189;28;20034;-88
2022/11/26 00:51:56;;;;;;;10.60;2.58;;;5.60;82.50;;;;;;4117648;28;20203;-87
2022/11/26 00:54:17;;;;;;;8.75;2.60;;;5.50;82.30;;;;;;4106282;28;20042;-89
2022/11/26 00:56:38;;;;;;;16.90;2.97;;;5.50;82.10;;;;;;4102656;28;20534;-88
2022/11/26 00:58:57;;;;;;;19.00;3.20;;;5.40;81.90;;;;;;4118678;28;20081;-89
2022/11/26 01:01:19;;;;;;;12.77;2.65;;;5.40;81.90;;;;;;4107930;28;20041;-87
2022/11/26 01:03:41;;;;;;;7.70;2.17;;;5.40;81.80;;;;;;4119965;28;20070;-89
2022/11/26 01:06:01;;;;;;;13.10;2.85;;;5.40;81.70;;;;;;4108269;28;20557;-89
2022/11/26 01:08:29;;;;;;;15.00;2.63;;;5.40;81.70;;;;;;4123542;28;20077;-90
2022/11/26 01:10:49;;;;;;;6.82;1.90;;;5.40;81.70;;;;;;4120136;28;20045;-87
2022/11/26 01:13:09;;;;;;;4.97;1.63;;;5.30;81.60;;;;;;4112736;28;20125;-88
2022/11/26 01:15:28;;;;;;;12.38;2.40;;;5.30;81.50;;;;;;4120867;28;20049;-88
2022/11/26 01:17:48;;;;;;;8.80;2.20;;;5.30;81.50;;;;;;4121290;28;20090;-88
2022/11/26 01:20:25;;;;;;;7.97;1.90;;;5.30;81.50;;;;;;4108550;28;20034;-88
2022/11/26 01:22:44;;;;;;;7.72;1.95;;;5.20;81.40;;;;;;4122640;28;20116;-88
2022/11/26 01:25:03;;;;;;;8.40;1.83;;;5.20;81.40;;;;;;4108818;28;20042;-89
2022/11/26 01:27:22;;;;;;;6.75;1.60;;;5.20;81.30;;;;;;4121863;28;20522;-90
2022/11/26 01:29:41;;;;;;;5.28;1.58;;;5.10;81.10;;;;;;4111104;28;20073;-89
2022/11/26 01:32:01;;;;;;;4.97;1.75;;;5.20;81.10;;;;;;4124901;28;20045;-88
2022/11/26 01:34:20;;;;;;;6.20;1.45;;;5.10;81.10;;;;;;4109721;28;20073;-87
2022/11/26 01:36:41;;;;;;;5.03;1.27;;;5.10;81.10;;;;;;4102231;28;20041;-89
2022/11/26 01:39:02;;;;;;;4.65;1.40;;;5.10;81.00;;;;;;4118811;28;20045;-87
2022/11/26 01:41:58;;;;;;;8.43;1.70;;;4.90;80.70;;;;;;4103646;28;20127;-89
2022/11/26 01:44:22;;;;;;;7.47;1.40;;;4.90;80.60;;;;;;4116744;28;20069;-88
2022/11/26 01:46:41;;;;;;;8.02;1.90;;;4.90;80.50;;;;;;4128969;28;20049;-86
2022/11/26 01:49:14;;;;;;;6.55;1.73;;;4.80;80.30;;;;;;4124622;28;20054;-88
2022/11/26 01:51:34;;;;;;;8.30;1.90;;;4.80;80.30;;;;;;4122347;28;20082;-89
2022/11/26 01:53:59;;;;;;;5.78;1.52;;;4.70;80.40;;;;;;4134248;28;20041;-87
2022/11/26 01:56:21;;;;;;;9.02;1.77;;;4.70;80.40;;;;;;4134665;28;20095;-86
2022/11/26 01:58:45;;;;;;;10.10;1.90;;;4.60;80.30;;;;;;4127879;28;20120;-88
2022/11/26 02:01:04;;;;;;;7.00;1.90;;;4.60;80.40;;;;;;4122992;28;20045;-89
2022/11/26 02:03:25;;;;;;;9.25;1.83;;;4.50;80.40;;;;;;4115580;28;20081;-89
2022/11/26 02:06:02;;;;;;;11.20;1.92;;;4.50;80.50;;;;;;4121056;28;20465;-88
2022/11/26 02:08:03;;;;;;;15.00;1.92;;;4.50;80.60;;;;;;4121491;28;20483;-87
2022/11/26 02:10:04;;;;;;;17.27;2.33;;;4.50;80.80;;;;;;4118293;28;20050;-87
2022/11/26 02:12:05;;;;;;;16.40;2.83;;;4.50;81.00;;;;;;4119774;28;20057;-88
2022/11/26 02:14:18;;;;;;;13.90;2.60;;;4.40;81.10;;;;;;4119862;28;20048;-89
2022/11/26 02:16:23;;;;;;;9.27;2.35;;;4.40;81.30;;;;;;4119149;28;20109;-88
2022/11/26 02:18:28;;;;;;;8.50;2.05;;;4.40;81.40;;;;;;4101082;28;20078;-88
2022/11/26 02:20:52;;;;;;;10.45;2.63;;;4.40;81.60;;;;;;4117228;28;20081;-88
2022/11/26 02:23:22;;;;;;;10.25;2.30;;;4.40;81.70;;;;;;4114080;28;20026;-88
2022/11/26 02:25:44;;;;;;;17.13;2.55;;;4.40;81.80;;;;;;4122852;28;20030;-88
2022/11/26 02:28:03;;;;;;;12.00;2.58;;;4.40;81.90;;;;;;4112058;28;20035;-88
2022/11/26 02:30:11;;;;;;;18.67;2.72;;;4.40;81.90;;;;;;4096194;28;20676;-88
2022/11/26 02:32:27;;;;;;;17.08;2.83;;;4.40;82.00;;;;;;4105203;28;20086;-87
2022/11/26 02:34:47;;;;;;;10.13;2.42;;;4.40;82.10;;;;;;4100883;28;20029;-87
2022/11/26 02:36:58;;;;;;;17.92;2.47;;;4.40;82.20;;;;;;4094053;28;20031;-88
2022/11/26 02:39:16;;;;;;;14.45;2.60;;;4.40;82.20;;;;;;4118046;28;20026;-88
2022/11/26 02:41:17;;;;;;;13.07;2.63;;;4.40;82.10;;;;;;4111269;28;20038;-87
2022/11/26 02:43:19;;;;;;;12.43;2.42;;;4.40;82.20;;;;;;4130077;28;20088;-87
2022/11/26 02:45:24;;;;;;;12.43;2.10;;;4.40;82.20;;;;;;4112384;28;20034;-87
2022/11/26 02:47:26;;;;;;;13.48;2.45;;;4.40;82.20;;;;;;4097254;28;20026;-88
2022/11/26 02:49:28;;;;;;;11.10;2.33;;;4.50;82.30;;;;;;4088171;28;20037;-89
2022/11/26 02:51:32;;;;;;;12.63;2.60;;;4.50;82.30;;;;;;4084529;28;20030;-87
2022/11/26 02:53:33;;;;;;;;;;;4.40;82.20;;;;;;4083422;28;20027;-87
2022/11/26 02:55:38;;;;;;;9.90;2.30;;;4.50;82.40;;;;;;4105822;28;19917;-87
2022/11/26 02:57:45;;;;;;;12.73;2.58;;;4.50;82.10;;;;;;4105886;28;20038;-86
2022/11/26 02:59:46;;;;;;;11.48;2.17;;;4.50;82.00;;;;;;4114821;28;20108;-88
2022/11/26 03:01:56;;;;;;;15.07;2.97;;;4.40;81.80;;;;;;4102100;28;20046;-87
2022/11/26 03:04:03;;;;;;;8.85;2.13;;;4.40;81.80;;;;;;4105800;28;20134;-86
2022/11/26 03:06:13;;;;;;;11.60;2.30;;;4.40;81.70;;;;;;4117192;28;20038;-87
2022/11/26 03:08:14;;;;;;;12.38;2.38;;;4.40;81.70;;;;;;4120278;28;20034;-87
2022/11/26 03:10:15;;;;;;;12.48;2.40;;;4.40;81.70;;;;;;4088432;28;20058;-88
2022/11/26 03:12:16;;;;;;;14.00;2.60;;;4.40;81.70;;;;;;4100092;28;20994;-87
2022/11/26 03:14:17;;;;;;;9.93;2.10;;;4.40;81.60;;;;;;4102902;28;20038;-88
2022/11/26 03:16:17;;;;;;;9.98;2.20;;;4.30;81.50;;;;;;4113680;28;20030;-87
2022/11/26 03:18:18;;;;;;;16.65;2.88;;;4.30;81.50;;;;;;4103386;28;20046;-87
2022/11/26 03:20:19;;;;;;;10.77;2.40;;;4.30;81.40;;;;;;4102035;28;20594;-87
2022/11/26 03:22:20;;;;;;;18.73;2.22;;;4.30;81.40;;;;;;4103438;28;20110;-87
2022/11/26 03:24:20;;;;;;;8.73;2.05;;;4.30;81.50;;;;;;4118660;28;20031;-88
2022/11/26 03:26:21;;;;;;;9.43;2.35;;;4.30;81.50;;;;;;4120688;28;20023;-87
2022/11/26 03:28:22;;;;;;;14.48;2.28;;;4.30;81.50;;;;;;4101352;28;20055;-87
2022/11/26 03:30:23;;;;;;;12.95;2.70;;;4.20;81.50;;;;;;4090440;28;20055;-87
2022/11/26 03:32:24;;;;;;;14.18;2.53;;;4.20;81.60;;;;;;4120781;28;20018;-87
2022/11/26 03:34:25;;;;;;;13.52;2.85;;;4.30;81.80;;;;;;4122960;28;20084;-87
2022/11/26 03:36:25;;;;;;;12.77;2.65;;;4.30;81.90;;;;;;4118408;28;20113;-86
2022/11/26 03:38:26;;;;;;;13.23;2.13;;;4.30;81.90;;;;;;4099639;28;20700;-88
2022/11/26 03:40:27;;;;;;;13.27;2.67;;;4.30;82.00;;;;;;4101816;28;20114;-86
2022/11/26 03:42:28;;;;;;;9.80;2.42;;;4.20;82.00;;;;;;4100209;28;20031;-85
2022/11/26 03:44:28;;;;;;;18.92;2.20;;;4.30;82.20;;;;;;4102888;28;20033;-88
2022/11/26 03:46:29;;;;;;;17.45;3.33;;;4.30;82.20;;;;;;4098849;28;20713;-88
2022/11/26 03:48:30;;;;;;;11.82;2.42;;;4.30;82.20;;;;;;4120116;28;20109;-87
2022/11/26 03:50:30;;;;;;;10.82;2.58;;;4.40;82.30;;;;;;4118552;28;20160;-87
2022/11/26 03:52:31;;;;;;;9.40;2.00;;;4.30;82.30;;;;;;4122811;28;20417;-86
2022/11/26 03:54:31;;;;;;;20.73;3.13;;;4.30;82.20;;;;;;4106716;28;20065;-85
2022/11/26 03:56:32;;;;;;;7.60;2.25;;;4.30;82.20;;;;;;4094959;28;20520;-86
2022/11/26 03:58:34;;;;;;;10.05;2.33;;;4.30;82.20;;;;;;4123479;28;20173;-85
2022/11/26 04:00:34;;;;;;;9.05;2.60;;;4.30;82.20;;;;;;4121408;28;20136;-85
2022/11/26 04:02:35;;;;;;;10.05;2.53;;;4.30;82.20;;;;;;4107353;28;20031;-86
2022/11/26 04:04:36;;;;;;;14.50;2.38;;;4.30;82.20;;;;;;4108860;28;20037;-87
2022/11/26 04:06:37;;;;;;;12.48;2.40;;;4.30;82.90;;;;;;4107210;28;20472;-86
2022/11/26 04:08:37;;;;;;;7.32;2.15;;;4.30;82.20;;;;;;4122672;28;20037;-86
2022/11/26 04:10:38;;;;;;;9.88;2.33;;;4.30;82.10;;;;;;4094057;28;20037;-88
2022/11/26 04:12:39;;;;;;;10.40;2.40;;;4.30;82.10;;;;;;4112034;28;20034;-86
2022/11/26 04:14:39;;;;;;;9.05;2.47;;;4.30;82.00;;;;;;4113891;28;20067;-85
2022/11/26 04:16:40;;;;;;;6.82;1.77;;;4.30;81.80;;;;;;4144414;28;20042;-87
2022/11/26 04:18:41;;;;;;;7.72;2.00;;;4.30;81.70;;;;;;4114227;28;20067;-86
2022/11/26 04:20:41;;;;;;;11.73;2.38;;;4.30;81.60;;;;;;4130270;28;20036;-87
2022/11/26 04:22:42;;;;;;;8.10;2.00;;;4.20;81.50;;;;;;4093928;28;20031;-87
2022/11/26 04:24:42;;;;;;;9.65;1.90;;;4.20;81.50;;;;;;4108805;28;20031;-87
2022/11/26 04:26:43;;;;;;;10.50;2.13;;;4.20;81.40;;;;;;4092955;28;20031;-87
2022/11/26 04:28:44;;;;;;;7.63;1.83;;;4.20;81.40;;;;;;4108521;28;20030;-87
2022/11/26 04:30:44;;;;;;;5.38;2.00;;;4.20;81.40;;;;;;4121080;28;20115;-87
2022/11/26 04:32:45;;;;;;;9.15;2.08;;;4.20;81.30;;;;;;4123517;28;20030;-87
2022/11/26 04:34:45;;;;;;;8.18;1.88;;;4.20;81.40;;;;;;4126200;28;20042;-86
2022/11/26 04:36:46;;;;;;;14.65;2.10;;;4.20;81.40;;;;;;4094975;28;20615;-87
2022/11/26 04:38:47;;;;;;;12.13;1.90;;;4.20;81.50;;;;;;4124314;28;20030;-84
2022/11/26 04:40:47;;;;;;;16.50;2.50;;;4.10;81.40;;;;;;4092809;28;20027;-85
2022/11/26 04:42:48;;;;;;;12.95;2.28;;;4.10;81.50;;;;;;4122196;28;20026;-84
2022/11/26 04:44:49;;;;;;;13.00;1.90;;;4.10;81.60;;;;;;4106620;28;20026;-88
2022/11/26 04:46:49;;;;;;;9.90;2.13;;;4.10;81.70;;;;;;4125048;28;20479;-87
2022/11/26 04:48:50;;;;;;;11.40;2.25;;;4.10;81.80;;;;;;4107381;28;20027;-87
2022/11/26 04:50:51;;;;;;;19.48;3.15;;;4.10;82.00;;;;;;4104673;28;20038;-86
2022/11/26 04:52:53;;;;;;;14.80;2.55;;;4.10;82.20;;;;;;4122479;28;20046;-85
2022/11/26 04:54:53;;;;;;;13.00;2.17;;;4.10;82.30;;;;;;4122741;28;20058;-86
2022/11/26 04:56:54;;;;;;;15.40;2.47;;;4.10;82.30;;;;;;4120553;28;20034;-86
2022/11/26 04:58:54;;;;;;;9.10;2.25;;;4.30;82.50;;;;;;4106117;28;20057;-87
2022/11/26 05:00:55;;;;;;;12.30;2.55;;;4.10;82.40;;;;;;4116345;28;20034;-85
2022/11/26 05:02:56;;;;;;;11.02;2.53;;;4.20;82.50;;;;;;4119100;28;20073;-86
2022/11/26 05:04:56;;;;;;;18.05;2.42;;;4.20;82.60;;;;;;4106027;28;20023;-85
2022/11/26 05:06:57;;;;;;;10.25;2.25;;;4.20;82.60;;;;;;4122170;28;20054;-86
2022/11/26 05:08:58;;;;;;;12.23;2.55;;;4.20;82.60;;;;;;4120949;28;20488;-88
2022/11/26 05:11:00;;;;;;;14.63;2.47;;;4.20;82.70;;;;;;4099502;28;20081;-87
2022/11/26 05:13:00;;;;;;;16.80;2.83;;;4.20;82.60;;;;;;4123374;28;20030;-87
2022/11/26 05:15:03;;;;;;;18.52;3.63;;;4.30;82.70;;;;;;4103041;28;21045;-86
2022/11/26 05:17:04;;;;;;;16.17;2.63;;;4.20;82.60;;;;;;4119653;28;20027;-87
2022/11/26 05:19:04;;;;;;;10.50;2.28;;;4.20;82.70;;;;;;4104473;28;20101;-87
2022/11/26 05:21:06;;;;;;;8.50;2.25;;;4.20;82.70;;;;;;4107192;28;20113;-86
2022/11/26 05:23:06;;;;;;;8.65;2.05;;;4.20;82.60;;;;;;4121269;28;20491;-85
2022/11/26 05:25:08;;;;;;;17.40;3.42;;;4.20;82.60;;;;;;4123512;28;20161;-87
2022/11/26 05:27:08;;;;;;;10.65;2.53;;;4.20;82.60;;;;;;4103769;28;20601;-85
2022/11/26 05:29:09;;;;;;;28.65;2.83;;;4.20;82.60;;;;;;4108364;28;20054;-86
2022/11/26 05:31:10;;;;;;;11.10;2.28;;;4.20;82.70;;;;;;4125057;28;20023;-87
2022/11/26 05:33:11;;;;;;;17.27;2.67;;;4.30;82.80;;;;;;4120633;28;20031;-85
2022/11/26 05:35:12;;;;;;;13.27;2.47;;;4.30;83.00;;;;;;4093163;28;20023;-87
2022/11/26 05:37:12;;;;;;;17.40;3.13;;;4.30;83.00;;;;;;4118034;28;20040;-87
2022/11/26 05:39:13;;;;;;;11.23;2.55;;;4.30;83.10;;;;;;4108708;28;20035;-86
2022/11/26 05:41:14;;;;;;;20.02;2.40;;;4.30;83.10;;;;;;4105193;28;20035;-86
2022/11/26 05:43:14;;;;;;;15.95;2.65;;;4.40;83.30;;;;;;4101191;28;20031;-88
2022/11/26 05:45:15;;;;;;;18.83;2.92;;;4.40;83.30;;;;;;4122120;28;20109;-87
2022/11/26 05:47:16;;;;;;;8.50;2.72;;;4.40;83.50;;;;;;4099291;28;20139;-86
2022/11/26 05:49:16;;;;;;;17.88;2.05;;;4.40;83.50;;;;;;4104459;28;20022;-89
2022/11/26 05:51:17;;;;;;;11.82;2.28;;;4.40;83.50;;;;;;4132597;28;20042;-86
2022/11/26 05:53:17;;;;;;;11.05;2.30;;;4.50;83.60;;;;;;4103458;28;20043;-85
2022/11/26 05:55:19;;;;;;;9.98;2.28;;;4.50;83.60;;;;;;4088111;28;20039;-88
2022/11/26 05:57:19;;;;;;;11.00;2.33;;;4.50;83.60;;;;;;4118013;28;20632;-87
2022/11/26 05:59:20;;;;;;;16.70;2.90;;;4.60;83.80;;;;;;4118525;28;20034;-88
2022/11/26 06:01:21;;;;;;;13.25;2.53;;;4.70;83.90;;;;;;4100665;28;20045;-89
2022/11/26 06:03:21;;;;;;;19.48;2.72;;;4.70;83.90;;;;;;4099394;28;20023;-88
2022/11/26 06:05:22;;;;;;;19.88;3.17;;;4.70;83.90;;;;;;4102067;28;20034;-88
2022/11/26 06:07:23;;;;;;;15.52;2.47;;;4.70;84.00;;;;;;4104561;28;20030;-86
2022/11/26 06:09:23;;;;;;;20.80;2.78;;;4.70;84.10;;;;;;4103598;28;20491;-86
2022/11/26 06:11:24;;;;;;;10.88;2.55;;;4.80;84.30;;;;;;4101010;28;20041;-86
2022/11/26 06:13:25;;;;;;;12.88;2.17;;;4.80;84.30;;;;;;4116487;28;20250;-87
2022/11/26 06:15:25;;;;;;;16.10;2.85;;;4.80;84.30;;;;;;4096856;28;20080;-85
2022/11/26 06:17:26;;;;;;;10.73;2.60;;;4.90;84.40;;;;;;4117751;28;20482;-87
2022/11/26 06:19:27;;;;;;;19.50;3.30;;;4.90;84.30;;;;;;4119066;28;20031;-87
2022/11/26 06:21:27;;;;;;;12.32;2.53;;;5.00;84.40;;;;;;4099227;28;20065;-87
2022/11/26 06:23:28;;;;;;;12.40;2.38;;;5.00;84.40;;;;;;4111887;28;20097;-86
2022/11/26 06:25:29;;;;;;;9.30;2.47;;;5.00;84.40;;;;;;4083736;28;20423;-86
2022/11/26 06:27:32;;;;;;;15.23;2.63;;;5.10;84.40;;;;;;4113114;28;20147;-86
2022/11/26 06:29:33;;;;;;;;;;;5.10;84.30;;;;;;4110613;28;20219;-89
2022/11/26 06:31:33;;;;;;;15.05;2.58;;;5.10;85.00;;;;;;4111658;28;19917;-87
2022/11/26 06:33:35;;;;;;;12.98;3.42;;;5.10;84.30;;;;;;4093555;28;20094;-87
2022/11/26 06:35:35;;;;;;;9.50;2.90;;;5.20;84.90;;;;;;4082041;28;20094;-87
2022/11/26 06:37:36;;;;;;;11.95;2.50;;;5.20;84.10;;;;;;4102071;28;20065;-87
2022/11/26 06:39:36;;;;;;;11.68;2.95;;;5.20;84.20;;;;;;4093125;28;21099;-86
2022/11/26 06:41:37;;;;;;;12.93;2.67;;;5.20;84.10;;;;;;4095987;28;20139;-87
2022/11/26 06:43:38;;;;;;;8.93;3.15;;;5.20;84.10;;;;;;4097316;28;20038;-87
2022/11/26 06:45:38;;;;;;;9.02;2.97;;;5.40;84.20;;;;;;4080140;28;20039;-87
2022/11/26 06:47:39;;;;;;;15.70;2.65;;;5.30;84.10;;;;;;4110787;28;20045;-87
2022/11/26 06:49:40;;;;;;;14.80;3.17;;;5.40;84.20;;;;;;4098437;28;20156;-87
2022/11/26 06:51:41;;;;;;;10.70;2.72;;;5.30;84.00;;;;;;4095487;28;20117;-87
2022/11/26 06:53:42;;;;;;;14.32;2.58;;;5.30;84.00;;;;;;4114782;28;20022;-87
2022/11/26 06:55:42;;;;;;;9.70;2.28;;;5.30;84.00;;;;;;4116001;28;20065;-86
2022/11/26 06:57:43;;;;;;;14.45;2.83;;;5.30;84.00;;;;;;4114499;28;20874;-87
2022/11/26 06:59:43;;;;;;;11.40;2.63;;;5.30;84.00;;;;;;4077627;28;20374;-87
2022/11/26 07:01:44;;;;;;;15.55;2.75;;;5.40;84.00;;;;;;4109391;28;23819;-86
2022/11/26 07:03:45;;;;;;;14.32;3.05;;;5.40;84.00;;;;;;4096609;28;20039;-87
2022/11/26 07:05:46;;;;;;;13.35;3.38;;;5.50;84.00;;;;;;4107034;28;20042;-87
2022/11/26 07:07:46;;;;;;;13.95;3.08;;;5.40;83.80;;;;;;4091805;28;21023;-88
2022/11/26 07:09:47;;;;;;;10.07;3.40;;;5.40;83.80;;;;;;4100439;28;20041;-86
2022/11/26 07:11:48;;;;;;;9.45;3.25;;;5.50;83.80;;;;;;4078109;28;21007;-87
2022/11/26 07:13:50;;;;;;;12.57;3.33;;;5.40;83.70;;;;;;4090256;28;20102;-87
2022/11/26 07:15:50;;;;;;;9.82;3.55;;;5.40;83.60;;;;;;4095315;28;20031;-87
2022/11/26 07:17:51;;;;;;;18.23;3.75;;;5.40;83.50;;;;;;4100506;28;20034;-87
2022/11/26 07:19:51;;;;;;;12.98;3.60;;;5.40;83.60;;;;;;4121914;28;20037;-87
2022/11/26 07:21:53;;;;;;;10.65;3.15;;;5.40;83.50;;;;;;4086843;28;20027;-87
2022/11/26 07:23:54;;;;;;;17.20;3.75;;;5.50;83.60;;;;;;4120277;28;20021;-87
2022/11/26 07:25:58;;;;;;;20.55;3.25;;;5.40;83.50;;;;;;4123011;28;20018;-87
2022/11/26 07:27:59;;;;;;;37.28;3.10;;;5.40;83.50;;;;;;4123641;28;20030;-88
2022/11/26 07:29:59;;;;;;;15.77;2.42;;;5.40;83.50;;;;;;4123329;28;20027;-87
2022/11/26 07:32:00;;;;;;;26.92;3.17;;;5.40;83.60;;;;;;4107973;28;20038;-87
2022/11/26 07:34:01;;;;;;;34.63;2.80;;;5.40;83.60;;;;;;4103991;28;20133;-87
2022/11/26 07:36:08;;;;;;;44.42;2.85;;;5.40;83.60;;;;;;4108706;28;20232;-87
2022/11/26 07:38:08;;;;;;;52.85;3.10;;;5.40;83.70;;;;;;4109067;28;20026;-86
2022/11/26 07:40:09;;;;;;;47.05;3.45;;;5.40;83.80;;;;;;4090374;28;20079;-87
2022/11/26 07:42:10;;;;;;;43.17;2.85;;;5.40;83.90;;;;;;4118597;28;20034;-88
2022/11/26 07:44:12;;;;;;;42.70;3.13;;;5.40;84.70;;;;;;4120005;28;20038;-87
2022/11/26 07:46:15;;;;;;;46.65;3.13;;;5.40;84.10;;;;;;4104475;28;20034;-87
2022/11/26 07:48:16;;;;;;;;;;;5.40;84.20;;;;;;4103501;28;20030;-86
2022/11/26 07:50:17;;;;;;;34.17;3.05;;;5.60;84.90;;;;;;4117031;28;19910;-87
2022/11/26 07:52:17;;;;;;;32.35;3.85;;;5.50;84.40;;;;;;4107156;28;20077;-88
2022/11/26 07:54:18;;;;;;;31.63;3.88;;;5.50;84.50;;;;;;4102333;28;20023;-87
2022/11/26 07:56:19;;;;;;;13.25;3.67;;;5.60;84.70;;;;;;4117278;28;20502;-88
2022/11/26 07:58:19;;;;;;;19.42;4.15;;;5.60;84.70;;;;;;4116557;28;20030;-87
2022/11/26 08:00:20;;;;;;;14.90;4.13;;;5.60;84.90;;;;;;4089291;28;20030;-87
2022/11/26 08:02:21;;;;;;;18.95;4.15;;;5.60;85.00;;;;;;4101038;28;20035;-86
2022/11/26 08:04:22;;;;;;;19.65;4.10;;;5.70;85.10;;;;;;4101508;28;20571;-88
2022/11/26 08:06:25;;;;;;;21.80;4.53;;;5.70;85.20;;;;;;4083952;28;20065;-88
2022/11/26 08:08:26;;;;;;;24.85;4.45;;;5.80;85.30;;;;;;4088649;28;20020;-87
2022/11/26 08:10:27;;;;;;;21.98;4.47;;;5.80;85.40;;;;;;4124092;28;20045;-87
2022/11/26 08:12:27;;;;;;;22.80;4.78;;;5.90;85.60;;;;;;4102444;28;20539;-87
2022/11/26 08:14:28;;;;;;;28.63;4.28;;;5.90;85.50;;;;;;4102518;28;20034;-87
2022/11/26 08:16:29;;;;;;;17.48;4.22;;;6.00;85.60;;;;;;4096970;28;20033;-87
2022/11/26 08:18:29;;;;;;;17.95;4.45;;;6.00;85.50;;;;;;4085842;28;20038;-87
2022/11/26 08:20:30;;;;;;;19.15;4.50;;;6.00;85.40;;;;;;4109035;28;20399;-87
2022/11/26 08:22:31;;;;;;;21.67;4.35;;;6.10;86.30;;;;;;4097698;28;20562;-87
2022/11/26 08:24:31;;;;;;;17.73;4.80;;;6.10;85.40;;;;;;4115108;28;20018;-86
2022/11/26 08:26:32;;;;;;;32.63;4.97;;;6.10;85.40;;;;;;4113168;28;20034;-87
2022/11/26 08:28:33;;;;;;;27.27;4.70;;;6.20;85.40;;;;;;4114737;28;20077;-86
2022/11/26 08:30:33;;;;;;;24.33;4.45;;;6.20;85.30;;;;;;4092349;28;20066;-87
2022/11/26 08:32:34;;;;;;;38.28;5.72;;;6.20;85.40;;;;;;4098990;28;20035;-88
2022/11/26 08:34:35;;;;;;;19.58;4.60;;;6.30;85.50;;;;;;4101546;28;20023;-87
2022/11/26 08:36:35;;;;;;;25.20;4.60;;;6.30;85.50;;;;;;4143904;23;20543;-85
2022/11/26 08:38:37;;;;;;;13.35;4.50;;;6.30;85.40;;;;;;4114589;28;20126;-84
2022/11/26 08:40:37;;;;;;;14.90;4.80;;;6.30;85.40;;;;;;4140250;28;20033;-86
2022/11/26 08:42:38;;;;;;;24.98;5.60;;;6.40;85.50;;;;;;4115105;28;20391;-86
2022/11/26 08:44:41;;;;;;;37.70;5.82;;;6.50;85.60;;;;;;4109685;28;20042;-85
2022/11/26 08:46:41;;;;;;;26.88;5.13;;;6.50;85.50;;;;;;4115409;28;20047;-86
2022/11/26 08:48:44;;;;;;;38.25;5.90;;;6.50;85.40;;;;;;4109110;28;20087;-85
2022/11/26 08:50:44;;;;;;;33.13;5.40;;;6.50;85.30;;;;;;4100304;28;20329;-85
2022/11/26 08:52:45;;;;;;;26.35;4.43;;;6.50;85.40;;;;;;4122280;28;20038;-85
2022/11/26 08:54:46;;;;;;;20.83;5.20;;;6.60;85.50;;;;;;4112562;28;20143;-86
2022/11/26 08:56:46;;;;;;;23.40;4.80;;;6.60;85.50;;;;;;4125508;28;20147;-85
2022/11/26 08:58:47;;;;;;;29.95;4.75;;;6.60;85.50;;;;;;4109847;28;20027;-85
2022/11/26 09:00:48;;;;;;;10.57;4.63;;;6.70;85.50;;;;;;4125879;28;20725;-85
2022/11/26 09:02:48;;;;;;;26.67;4.88;;;6.60;85.40;;;;;;4127143;28;20353;-85
2022/11/26 09:05:04;;;;;;;24.95;4.28;;;6.70;85.60;;;;;;4111585;28;20024;-85
2022/11/26 09:07:24;;;;;;;23.55;4.50;;;6.70;85.50;;;;;;4127443;28;20038;-84
2022/11/26 09:09:45;;;;;;;26.83;4.60;;;6.70;85.50;;;;;;4116768;28;20125;-84
2022/11/26 09:11:48;;;;;;;61.40;4.68;;;6.70;85.50;;;;;;4098467;28;20031;-85
2022/11/26 09:14:11;;;;;;;12.68;4.60;;;6.70;85.50;;;;;;4129982;28;20076;-84
2022/11/26 09:16:32;;;;;;;15.15;4.47;;;6.80;85.50;;;;;;4113038;28;20035;-84
2022/11/26 09:18:52;;;;;;;19.52;4.78;;;6.90;85.50;;;;;;4119110;28;20030;-85
2022/11/26 09:21:13;;;;;;;25.05;4.35;;;6.80;85.40;;;;;;4114480;28;20149;-84
2022/11/26 09:23:34;;;;;;;33.45;4.45;;;7.00;85.50;;;;;;4122828;28;20045;-85
2022/11/26 09:25:54;;;;;;;16.67;4.68;;;7.00;85.50;;;;;;4115652;28;20294;-84
2022/11/26 09:28:14;;;;;;;28.23;4.15;;;6.90;85.40;;;;;;4104014;28;20019;-86
2022/11/26 09:30:34;;;;;;;47.65;5.05;;;7.00;85.40;;;;;;4124436;28;20697;-86
2022/11/26 09:32:55;;;;;;;20.90;4.72;;;7.10;85.50;;;;;;4128567;28;20038;-85
2022/11/26 09:35:15;;;;;;;21.77;4.43;;;7.00;85.30;;;;;;4117060;28;20031;-84
2022/11/26 09:37:39;;;;;;;30.17;4.07;;;7.10;85.60;;;;;;4113717;28;20105;-84
2022/11/26 09:39:59;;;;;;;26.33;4.10;;;7.20;85.70;;;;;;4123364;28;20045;-86
2022/11/26 09:42:39;;;;;;;28.38;4.00;;;7.20;85.70;;;;;;4129982;28;20038;-85
2022/11/26 09:45:09;;;;;;;30.05;4.47;;;7.10;85.80;;;;;;4130498;28;20122;-85
2022/11/26 09:47:46;;;;;;;28.13;3.85;;;7.20;85.70;;;;;;4125321;28;20027;-85
2022/11/26 09:50:10;;;;;;;31.08;4.70;;;7.20;85.80;;;;;;4113683;28;20055;-86
2022/11/26 09:52:53;;;;;;;10.27;3.72;;;7.30;86.00;;;;;;4117209;28;20061;-85
2022/11/26 09:55:17;;;;;;;16.58;4.57;;;7.30;85.90;;;;;;4125498;28;20035;-84
2022/11/26 09:58:09;;;;;;;14.27;4.85;;;7.30;85.90;;;;;;4129360;28;20026;-84
2022/11/26 10:00:38;;;;;;;19.67;4.68;;;7.50;86.20;;;;;;4132544;28;20038;-85
2022/11/26 10:02:58;;;;;;;14.32;5.03;;;7.50;86.00;;;;;;4132555;28;20023;-86
2022/11/26 10:05:23;;;;;;;21.83;5.88;;;7.50;86.20;;;;;;4136513;28;20035;-85
2022/11/26 10:07:58;;;;;;;23.42;5.63;;;7.50;86.20;;;;;;4122731;28;20035;-86
2022/11/26 10:10:47;;;;;;;23.30;6.22;;;7.60;86.30;;;;;;4117961;28;20098;-86
2022/11/26 10:13:27;;;;;;;18.40;5.35;;;7.60;86.30;;;;;;4133946;28;20018;-86
2022/11/26 10:16:02;;;;;;;24.33;5.57;;;7.80;86.50;;;;;;4138437;28;20081;-85
2022/11/26 10:18:53;;;;;;;25.25;5.93;;;7.80;86.50;;;;;;4135468;28;20089;-86
2022/11/26 10:21:24;;;;;;;22.40;5.75;;;7.80;87.40;;;;;;4117512;28;20031;-86
2022/11/26 10:23:51;;;;;;;28.80;6.10;;;7.90;86.60;;;;;;4127514;28;20073;-87
2022/11/26 10:26:20;;;;;;;21.40;5.85;;;7.90;86.50;;;;;;4140055;28;20134;-86
2022/11/26 10:28:47;;;;;;;23.15;5.47;;;8.10;86.60;;;;;;4126160;28;20023;-86
2022/11/26 10:31:23;;;;;;;29.73;5.28;;;7.90;86.50;;;;;;4124834;28;20031;-85
2022/11/26 10:33:53;;;;;;;26.95;5.50;;;8.20;86.60;;;;;;4135091;28;20023;-86
2022/11/26 10:36:21;;;;;;;31.00;5.40;;;8.20;86.50;;;;;;4139302;28;20041;-88
2022/11/26 10:38:41;;;;;;;21.30;5.00;;;8.30;86.50;;;;;;4122749;28;20130;-85
2022/11/26 10:41:00;;;;;;;17.90;4.53;;;8.30;86.30;;;;;;4123938;28;20045;-87
2022/11/26 10:43:23;;;;;;;21.17;4.60;;;8.40;86.30;;;;;;4110085;28;20041;-86
2022/11/26 10:45:56;;;;;;;25.63;5.32;;;8.40;86.10;;;;;;4113621;28;20074;-85
2022/11/26 10:48:26;;;;;;;25.08;5.13;;;8.30;86.10;;;;;;4121597;28;20054;-85
2022/11/26 10:51:08;;;;;;;18.98;5.07;;;8.40;85.80;;;;;;4123086;28;20046;-85
2022/11/26 10:53:33;;;;;;;17.83;5.80;;;8.40;85.80;;;;;;4123387;28;20037;-84
2022/11/26 10:55:57;;;;;;;19.30;5.80;;;8.50;85.70;;;;;;4121045;28;20038;-85
2022/11/26 10:58:21;;;;;;;24.38;5.97;;;8.50;85.50;;;;;;4119040;28;20536;-85
2022/11/26 11:00:50;;;;;;;11.45;5.70;;;8.40;85.30;;;;;;4133117;28;20041;-86
2022/11/26 11:03:22;;;;;;;18.85;5.70;;;8.40;85.20;;;;;;4130336;28;20074;-85
2022/11/26 11:05:43;;;;;;;21.33;6.38;;;8.50;85.30;;;;;;4133244;28;20420;-86
2022/11/26 11:08:02;;;;;;;22.23;6.18;;;8.50;85.30;;;;;;4130195;28;20089;-86
2022/11/26 11:10:24;;;;;;;28.13;6.10;;;8.50;85.40;;;;;;4120038;28;20054;-88
2022/11/26 11:13:10;;;;;;;18.70;5.85;;;8.60;85.40;;;;;;4117413;28;20561;-85
2022/11/26 11:15:34;;;;;;;22.42;6.63;;;8.50;85.50;;;;;;4128212;28;20032;-85
2022/11/26 11:18:05;;;;;;;18.15;6.28;;;8.50;85.30;;;;;;4119555;28;20036;-86